2V3 weather

CLOSED Hartenbower Hectares Airport
Lostant, Illinois, United States

Public forecast

Using degrees Fahrenheit for public forecast. Weather courtesy of forecast.io.

METAR (pilot weather report)

Closest report is Illinois Valley Regional Airport-Walter A Duncan Field, 10.2 nm (19.0 km) N. Retrieved 2019/08/19 13:35 UTC (0 seconds ago):

KVYS 191335Z AUTO 00000KT 10SM SCT090 24/21 A3001 RMK AO2 T02370206

TAF (pilot weather forecast)

Closest forecast is General Wayne A. Downing Peoria International Airport, 39.7 nm (73.6 km) SW. Retrieved 2019/08/19 12:22 UTC (1 hour ago):

TAF KPIA 191120Z 1912/2012 00000KT P6SM FEW090 FM191600 VRB05KT P6SM BKN045 FM191900 VRB04KT P6SM VCSH BKN050 FM200000 VRB03KT P6SM SCT250